createdAt,value
2023-01-03T00:00:32.000Z,96.50
2023-01-03T00:01:32.000Z,96.50
2023-01-03T00:02:32.000Z,96.40
2023-01-03T00:03:32.000Z,96.40
2023-01-03T00:04:32.000Z,96.40
2023-01-03T00:05:32.000Z,96.40
2023-01-03T00:06:32.000Z,96.40
2023-01-03T00:07:32.000Z,96.40
2023-01-03T00:08:32.000Z,96.40
2023-01-03T00:09:32.000Z,96.40
2023-01-03T00:10:32.000Z,96.40
2023-01-03T00:11:32.000Z,96.30
2023-01-03T00:12:32.000Z,96.19
2023-01-03T00:13:32.000Z,96.09
2023-01-03T00:14:32.000Z,96.09
2023-01-03T00:15:32.000Z,95.89
2023-01-03T00:16:32.000Z,95.78
2023-01-03T00:17:32.000Z,95.78
2023-01-03T00:18:32.000Z,95.78
2023-01-03T00:19:32.000Z,95.68
2023-01-03T00:20:32.000Z,95.68
2023-01-03T00:21:32.000Z,95.57
2023-01-03T00:22:32.000Z,95.57
2023-01-03T00:23:32.000Z,95.57
2023-01-03T00:24:32.000Z,95.47
2023-01-03T00:25:32.000Z,95.47
2023-01-03T00:26:32.000Z,95.47
2023-01-03T00:27:32.000Z,95.37
2023-01-03T00:28:32.000Z,95.37
2023-01-03T00:29:32.000Z,95.27
2023-01-03T00:30:32.000Z,95.27
2023-01-03T00:31:32.000Z,95.27
2023-01-03T00:32:32.000Z,95.21
2023-01-03T00:33:32.000Z,95.06
2023-01-03T00:34:32.000Z,95.01
2023-01-03T00:35:32.000Z,95.01
2023-01-03T00:36:32.000Z,95.01
2023-01-03T00:37:32.000Z,95.10
2023-01-03T00:38:32.000Z,95.01
2023-01-03T00:39:32.000Z,95.01
2023-01-03T00:40:32.000Z,94.90
2023-01-03T00:41:32.000Z,94.90
2023-01-03T00:42:32.000Z,94.90
2023-01-03T00:43:32.000Z,94.80
2023-01-03T00:44:32.000Z,94.70
2023-01-03T00:45:32.000Z,94.70
2023-01-03T00:46:32.000Z,94.70
2023-01-03T00:47:32.000Z,94.80
2023-01-03T00:48:32.000Z,94.74
2023-01-03T00:49:32.000Z,94.80
2023-01-03T00:50:32.000Z,94.84
2023-01-03T00:51:32.000Z,94.84
2023-01-03T00:52:32.000Z,94.84
2023-01-03T00:53:32.000Z,94.84
2023-01-03T00:54:32.000Z,94.74
2023-01-03T00:55:32.000Z,94.74
2023-01-03T00:56:32.000Z,94.84
2023-01-03T00:57:32.000Z,94.84
2023-01-03T00:58:32.000Z,94.84
2023-01-03T00:59:32.000Z,94.84
2023-01-03T01:00:32.000Z,94.95
2023-01-03T01:01:32.000Z,94.95
2023-01-03T01:02:32.000Z,94.95
2023-01-03T01:03:32.000Z,94.95
2023-01-03T01:04:32.000Z,94.99
2023-01-03T01:05:32.000Z,94.89
2023-01-03T01:06:32.000Z,94.89
2023-01-03T01:07:32.000Z,94.99
2023-01-03T01:08:32.000Z,95.09
2023-01-03T01:09:32.000Z,94.99
2023-01-03T01:10:31.000Z,94.99
2023-01-03T01:11:31.000Z,94.89
2023-01-03T01:12:31.000Z,94.99
2023-01-03T01:13:31.000Z,94.99
2023-01-03T01:14:31.000Z,95.09
2023-01-03T01:15:31.000Z,95.20
2023-01-03T01:16:31.000Z,95.20
2023-01-03T01:17:31.000Z,95.20
2023-01-03T01:18:31.000Z,95.20
2023-01-03T01:19:31.000Z,95.20
2023-01-03T01:20:31.000Z,95.30
2023-01-03T01:21:31.000Z,95.30
2023-01-03T01:22:31.000Z,95.20
2023-01-03T01:23:31.000Z,95.24
2023-01-03T01:24:31.000Z,95.30
2023-01-03T01:25:31.000Z,95.30
2023-01-03T01:26:31.000Z,95.30
2023-01-03T01:27:31.000Z,95.24
2023-01-03T01:28:31.000Z,95.09
2023-01-03T01:29:31.000Z,95.14
2023-01-03T01:30:31.000Z,95.14
2023-01-03T01:31:31.000Z,95.14
2023-01-03T01:32:31.000Z,95.14
2023-01-03T01:33:31.000Z,95.14
2023-01-03T01:34:31.000Z,95.14
2023-01-03T01:35:31.000Z,95.14
2023-01-03T01:36:31.000Z,95.14
2023-01-03T01:37:31.000Z,95.24
2023-01-03T01:38:31.000Z,95.24
2023-01-03T01:39:31.000Z,95.24
2023-01-03T01:40:31.000Z,95.20
2023-01-03T01:41:31.000Z,95.24
2023-01-03T01:42:31.000Z,95.14
2023-01-03T01:43:31.000Z,95.24
2023-01-03T01:44:31.000Z,95.24
2023-01-03T01:45:31.000Z,95.34
2023-01-03T01:46:31.000Z,95.34
2023-01-03T01:47:31.000Z,95.24
2023-01-03T01:48:31.000Z,95.14
2023-01-03T01:49:31.000Z,95.24
2023-01-03T01:50:31.000Z,95.24
2023-01-03T01:51:31.000Z,95.14
2023-01-03T01:52:31.000Z,95.14
2023-01-03T01:53:31.000Z,95.14
2023-01-03T01:54:31.000Z,95.03
2023-01-03T01:55:31.000Z,95.03
2023-01-03T01:56:31.000Z,95.03
2023-01-03T01:57:31.000Z,95.03
2023-01-03T01:58:31.000Z,94.83
2023-01-03T01:59:31.000Z,94.83
2023-01-03T02:00:31.000Z,94.83
2023-01-03T02:01:31.000Z,94.83
2023-01-03T02:02:31.000Z,94.73
2023-01-03T02:03:31.000Z,94.73
2023-01-03T02:04:31.000Z,94.62
2023-01-03T02:05:31.000Z,94.62
2023-01-03T02:06:31.000Z,94.52
2023-01-03T02:07:31.000Z,94.52
2023-01-03T02:08:31.000Z,94.42
2023-01-03T02:09:31.000Z,94.42
2023-01-03T02:10:31.000Z,94.31
2023-01-03T02:11:31.000Z,94.31
2023-01-03T02:12:31.000Z,94.31
2023-01-03T02:13:31.000Z,94.31
2023-01-03T02:14:31.000Z,94.11
2023-01-03T02:15:31.000Z,94.21
2023-01-03T02:16:31.000Z,94.31
2023-01-03T02:17:31.000Z,94.42
2023-01-03T02:18:31.000Z,94.21
2023-01-03T02:19:31.000Z,94.11
2023-01-03T02:20:31.000Z,94.11
2023-01-03T02:21:31.000Z,94.01
2023-01-03T02:22:31.000Z,93.90
2023-01-03T02:23:31.000Z,93.90
2023-01-03T02:24:31.000Z,93.90
2023-01-03T02:25:31.000Z,93.90
2023-01-03T02:26:31.000Z,93.90
2023-01-03T02:27:31.000Z,93.80
2023-01-03T02:28:31.000Z,93.70
2023-01-03T02:29:31.000Z,93.70
2023-01-03T02:30:31.000Z,93.70
2023-01-03T02:31:31.000Z,93.59
2023-01-03T02:32:31.000Z,93.59
2023-01-03T02:33:31.000Z,93.59
2023-01-03T02:34:31.000Z,93.49
2023-01-03T02:35:31.000Z,93.29
2023-01-03T02:36:31.000Z,93.08
2023-01-03T02:37:31.000Z,93.08
2023-01-03T02:38:31.000Z,92.87
2023-01-03T02:39:31.000Z,92.87
2023-01-03T02:40:31.000Z,92.77
2023-01-03T02:41:31.000Z,92.67
2023-01-03T02:42:31.000Z,92.67
2023-01-03T02:43:31.000Z,92.57
2023-01-03T02:44:31.000Z,92.57
2023-01-03T02:45:31.000Z,92.57
2023-01-03T02:46:31.000Z,92.46
2023-01-03T02:47:31.000Z,92.57
2023-01-03T02:48:31.000Z,92.57
2023-01-03T02:49:31.000Z,92.20
2023-01-03T02:50:31.000Z,92.20
2023-01-03T02:51:31.000Z,92.30
2023-01-03T02:52:31.000Z,92.30
2023-01-03T02:53:31.000Z,92.30
2023-01-03T02:54:30.000Z,92.30
2023-01-03T02:55:30.000Z,92.30
2023-01-03T02:56:30.000Z,92.20
2023-01-03T02:57:30.000Z,92.10
2023-01-03T02:58:30.000Z,91.99
2023-01-03T02:59:30.000Z,91.93
2023-01-03T03:00:30.000Z,91.89
2023-01-03T03:01:30.000Z,92.03
2023-01-03T03:02:30.000Z,92.03
2023-01-03T03:03:30.000Z,92.03
2023-01-03T03:04:30.000Z,92.14
2023-01-03T03:05:30.000Z,92.14
2023-01-03T03:06:30.000Z,92.24
2023-01-03T03:07:30.000Z,92.24
2023-01-03T03:08:30.000Z,92.34
2023-01-03T03:09:30.000Z,92.34
2023-01-03T03:10:30.000Z,92.34
2023-01-03T03:11:30.000Z,92.24
2023-01-03T03:12:30.000Z,92.24
2023-01-03T03:13:30.000Z,92.24
2023-01-03T03:14:30.000Z,92.24
2023-01-03T03:15:30.000Z,92.44
2023-01-03T03:16:30.000Z,92.34
2023-01-03T03:17:30.000Z,92.34
2023-01-03T03:18:30.000Z,92.34
2023-01-03T03:19:30.000Z,92.44
2023-01-03T03:20:30.000Z,92.65
2023-01-03T03:21:30.000Z,92.44
2023-01-03T03:22:30.000Z,92.34
2023-01-03T03:23:30.000Z,92.44
2023-01-03T03:24:30.000Z,92.34
2023-01-03T03:25:30.000Z,92.44
2023-01-03T03:26:30.000Z,92.55
2023-01-03T03:27:30.000Z,92.44
2023-01-03T03:28:30.000Z,92.44
2023-01-03T03:29:30.000Z,92.55
2023-01-03T03:30:30.000Z,92.55
2023-01-03T03:31:30.000Z,92.34
2023-01-03T03:32:30.000Z,92.44
2023-01-03T03:33:30.000Z,92.55
2023-01-03T03:34:30.000Z,92.65
2023-01-03T03:35:30.000Z,92.65
2023-01-03T03:36:30.000Z,92.65
2023-01-03T03:37:30.000Z,92.65
2023-01-03T03:38:30.000Z,92.76
2023-01-03T03:39:30.000Z,92.86
2023-01-03T03:40:30.000Z,92.76
2023-01-03T03:41:30.000Z,92.76
2023-01-03T03:42:30.000Z,92.55
2023-01-03T03:43:30.000Z,92.34
2023-01-03T03:44:30.000Z,92.14
2023-01-03T03:45:30.000Z,91.99
2023-01-03T03:46:30.000Z,91.89
2023-01-03T03:47:30.000Z,91.78
2023-01-03T03:48:30.000Z,91.68
2023-01-03T03:49:30.000Z,91.58
2023-01-03T03:50:30.000Z,91.38
2023-01-03T03:51:30.000Z,91.06
2023-01-03T03:52:30.000Z,90.96
2023-01-03T03:53:30.000Z,90.86
2023-01-03T03:54:30.000Z,90.66
2023-01-03T03:55:30.000Z,90.66
2023-01-03T03:56:30.000Z,90.55
2023-01-03T03:57:30.000Z,90.45
2023-01-03T03:58:30.000Z,90.34
2023-01-03T03:59:30.000Z,90.34
2023-01-03T04:00:30.000Z,90.34
2023-01-03T04:01:30.000Z,90.34
2023-01-03T04:02:30.000Z,90.24
2023-01-03T04:03:30.000Z,90.24
2023-01-03T04:04:30.000Z,90.34
2023-01-03T04:05:30.000Z,90.49
2023-01-03T04:06:30.000Z,90.49
2023-01-03T04:07:30.000Z,90.49
2023-01-03T04:08:30.000Z,90.59
2023-01-03T04:09:30.000Z,90.49
2023-01-03T04:10:30.000Z,90.49
2023-01-03T04:11:30.000Z,90.49
2023-01-03T04:12:30.000Z,90.59
2023-01-03T04:13:30.000Z,90.69
2023-01-03T04:14:30.000Z,90.69
2023-01-03T04:15:30.000Z,90.80
2023-01-03T04:16:30.000Z,90.90
2023-01-03T04:17:30.000Z,91.11
2023-01-03T04:18:30.000Z,91.25
2023-01-03T04:19:30.000Z,91.21
2023-01-03T04:20:30.000Z,91.36
2023-01-03T04:21:30.000Z,91.46
2023-01-03T04:22:30.000Z,91.36
2023-01-03T04:23:30.000Z,91.56
2023-01-03T04:24:30.000Z,91.66
2023-01-03T04:25:30.000Z,91.77
2023-01-03T04:26:30.000Z,91.87
2023-01-03T04:27:30.000Z,91.77
2023-01-03T04:28:30.000Z,91.87
2023-01-03T04:29:30.000Z,92.08
2023-01-03T04:30:30.000Z,92.18
2023-01-03T04:31:30.000Z,92.18
2023-01-03T04:32:30.000Z,92.18
2023-01-03T04:33:30.000Z,92.29
2023-01-03T04:34:30.000Z,92.29
2023-01-03T04:35:30.000Z,92.38
2023-01-03T04:36:30.000Z,92.29
2023-01-03T04:37:30.000Z,92.38
2023-01-03T04:38:29.000Z,92.38
2023-01-03T04:39:29.000Z,92.49
2023-01-03T04:40:29.000Z,92.49
2023-01-03T04:41:29.000Z,92.49
2023-01-03T04:42:29.000Z,92.59
2023-01-03T04:43:29.000Z,92.63
2023-01-03T04:44:29.000Z,92.59
2023-01-03T04:45:29.000Z,92.80
2023-01-03T04:46:29.000Z,92.90
2023-01-03T04:47:29.000Z,93.05
2023-01-03T04:48:29.000Z,93.01
2023-01-03T04:49:29.000Z,93.01
2023-01-03T04:50:29.000Z,93.11
2023-01-03T04:51:29.000Z,93.11
2023-01-03T04:52:29.000Z,93.01
2023-01-03T04:53:29.000Z,93.01
2023-01-03T04:54:29.000Z,93.01
2023-01-03T04:55:29.000Z,93.11
2023-01-03T04:56:29.000Z,93.21
2023-01-03T04:57:29.000Z,93.11
2023-01-03T04:58:29.000Z,93.21
2023-01-03T04:59:29.000Z,93.21
2023-01-03T05:00:29.000Z,93.21
2023-01-03T05:01:29.000Z,93.21
2023-01-03T05:02:29.000Z,93.31
2023-01-03T05:03:29.000Z,93.31
2023-01-03T05:04:29.000Z,93.31
2023-01-03T05:05:29.000Z,93.31
2023-01-03T05:06:29.000Z,93.41
2023-01-03T05:07:29.000Z,93.41
2023-01-03T05:08:29.000Z,93.41
2023-01-03T05:09:29.000Z,93.11
2023-01-03T05:10:29.000Z,93.11
2023-01-03T05:11:29.000Z,93.11
2023-01-03T05:12:29.000Z,93.21
2023-01-03T05:13:29.000Z,93.11
2023-01-03T05:14:29.000Z,93.11
2023-01-03T05:15:29.000Z,93.11
2023-01-03T05:16:29.000Z,93.11
2023-01-03T05:17:29.000Z,93.01
2023-01-03T05:18:29.000Z,93.01
2023-01-03T05:19:29.000Z,93.01
2023-01-03T05:20:29.000Z,92.80
2023-01-03T05:21:29.000Z,92.80
2023-01-03T05:22:29.000Z,92.69
2023-01-03T05:23:29.000Z,92.59
2023-01-03T05:24:29.000Z,92.49
2023-01-03T05:25:29.000Z,92.29
2023-01-03T05:26:29.000Z,92.18
2023-01-03T05:27:29.000Z,92.08
2023-01-03T05:28:29.000Z,91.87
2023-01-03T05:29:29.000Z,91.66
2023-01-03T05:30:29.000Z,91.56
2023-01-03T05:31:29.000Z,91.36
2023-01-03T05:32:29.000Z,91.15
2023-01-03T05:33:29.000Z,91.05
2023-01-03T05:34:29.000Z,90.94
2023-01-03T05:35:29.000Z,90.94
2023-01-03T05:36:29.000Z,90.73
2023-01-03T05:37:29.000Z,90.53
2023-01-03T05:38:29.000Z,90.43
2023-01-03T05:39:29.000Z,90.33
2023-01-03T05:40:29.000Z,90.22
2023-01-03T05:41:29.000Z,90.12
2023-01-03T05:42:29.000Z,89.91
2023-01-03T05:43:29.000Z,89.91
2023-01-03T05:44:29.000Z,89.81
2023-01-03T05:45:29.000Z,89.91
2023-01-03T05:46:29.000Z,90.01
2023-01-03T05:47:29.000Z,90.01
2023-01-03T05:48:29.000Z,89.91
2023-01-03T05:49:29.000Z,89.91
2023-01-03T05:50:29.000Z,89.77
2023-01-03T05:51:29.000Z,89.71
2023-01-03T05:52:29.000Z,89.56
2023-01-03T05:53:29.000Z,89.46
2023-01-03T05:54:29.000Z,89.56
2023-01-03T05:55:29.000Z,89.56
2023-01-03T05:56:29.000Z,89.56
2023-01-03T05:57:29.000Z,89.56
2023-01-03T05:58:29.000Z,89.56
2023-01-03T05:59:29.000Z,89.56
2023-01-03T06:00:29.000Z,89.56
2023-01-03T06:01:29.000Z,89.56
2023-01-03T06:02:29.000Z,89.56
2023-01-03T06:03:29.000Z,89.46
2023-01-03T06:04:29.000Z,89.36
2023-01-03T06:05:29.000Z,89.36
2023-01-03T06:06:29.000Z,89.46
2023-01-03T06:07:29.000Z,89.46
2023-01-03T06:08:29.000Z,89.46
2023-01-03T06:09:29.000Z,89.46
2023-01-03T06:10:29.000Z,89.77
2023-01-03T06:11:29.000Z,89.97
2023-01-03T06:12:29.000Z,90.08
2023-01-03T06:13:29.000Z,90.28
2023-01-03T06:14:29.000Z,90.49
2023-01-03T06:15:29.000Z,90.80
2023-01-03T06:16:29.000Z,91.11
2023-01-03T06:17:29.000Z,91.42
2023-01-03T06:18:29.000Z,91.62
2023-01-03T06:19:29.000Z,91.83
2023-01-03T06:20:29.000Z,91.83
2023-01-03T06:21:29.000Z,91.93
2023-01-03T06:22:29.000Z,91.93
2023-01-03T06:23:28.000Z,92.03
2023-01-03T06:24:28.000Z,92.03
2023-01-03T06:25:28.000Z,92.14
2023-01-03T06:26:28.000Z,92.14
2023-01-03T06:27:28.000Z,92.14
2023-01-03T06:28:28.000Z,92.14
2023-01-03T06:29:28.000Z,92.14
2023-01-03T06:30:28.000Z,92.24
2023-01-03T06:31:28.000Z,92.24
2023-01-03T06:32:28.000Z,92.24
2023-01-03T06:33:28.000Z,92.24
2023-01-03T06:34:28.000Z,92.24
2023-01-03T06:35:28.000Z,92.34
2023-01-03T06:36:28.000Z,92.34
2023-01-03T06:37:28.000Z,92.34
2023-01-03T06:38:28.000Z,92.34
2023-01-03T06:39:28.000Z,92.24
2023-01-03T06:40:28.000Z,92.34
2023-01-03T06:41:28.000Z,92.34
2023-01-03T06:42:28.000Z,92.44
2023-01-03T06:43:28.000Z,92.44
2023-01-03T06:44:28.000Z,92.44
2023-01-03T06:45:28.000Z,92.44
2023-01-03T06:46:28.000Z,92.34
2023-01-03T06:47:28.000Z,92.34
2023-01-03T06:48:28.000Z,92.44
2023-01-03T06:49:28.000Z,92.44
2023-01-03T06:50:28.000Z,92.44
2023-01-03T06:51:28.000Z,92.44
2023-01-03T06:52:28.000Z,92.34
2023-01-03T06:53:28.000Z,92.44
2023-01-03T06:54:28.000Z,92.34
2023-01-03T06:55:28.000Z,92.34
2023-01-03T06:56:28.000Z,92.34
2023-01-03T06:57:28.000Z,92.44
2023-01-03T06:58:28.000Z,92.59
2023-01-03T06:59:28.000Z,92.49
2023-01-03T07:00:28.000Z,92.55
2023-01-03T07:01:28.000Z,92.49
2023-01-03T07:02:28.000Z,92.59
2023-01-03T07:03:28.000Z,92.59
2023-01-03T07:04:28.000Z,92.59
2023-01-03T07:05:28.000Z,92.59
2023-01-03T07:06:28.000Z,92.59
2023-01-03T07:07:28.000Z,92.38
2023-01-03T07:08:28.000Z,92.18
2023-01-03T07:09:28.000Z,91.97
2023-01-03T07:10:28.000Z,91.87
2023-01-03T07:11:28.000Z,91.87
2023-01-03T07:12:28.000Z,91.87
2023-01-03T07:13:28.000Z,91.77
2023-01-03T07:14:28.000Z,91.77
2023-01-03T07:15:28.000Z,91.60
2023-01-03T07:16:28.000Z,91.40
2023-01-03T07:17:28.000Z,91.30
2023-01-03T07:18:28.000Z,91.09
2023-01-03T07:19:28.000Z,91.09
2023-01-03T07:20:28.000Z,90.99
2023-01-03T07:21:28.000Z,91.13
2023-01-03T07:22:28.000Z,91.13
2023-01-03T07:23:28.000Z,91.13
2023-01-03T07:24:28.000Z,91.24
2023-01-03T07:25:28.000Z,91.34
2023-01-03T07:26:28.000Z,91.34
2023-01-03T07:27:28.000Z,91.69
2023-01-03T07:28:28.000Z,91.79
2023-01-03T07:29:28.000Z,92.00
2023-01-03T07:30:28.000Z,92.00
2023-01-03T07:31:28.000Z,92.21
2023-01-03T07:32:28.000Z,92.41
2023-01-03T07:33:28.000Z,92.41
2023-01-03T07:34:28.000Z,92.41
2023-01-03T07:35:28.000Z,92.31
2023-01-03T07:36:28.000Z,92.41
2023-01-03T07:37:28.000Z,92.51
2023-01-03T07:38:28.000Z,92.72
2023-01-03T07:39:28.000Z,92.72
2023-01-03T07:40:28.000Z,92.72
2023-01-03T07:41:28.000Z,92.76
2023-01-03T07:42:28.000Z,92.72
2023-01-03T07:43:28.000Z,92.82
2023-01-03T07:44:28.000Z,92.86
2023-01-03T07:45:28.000Z,92.86
2023-01-03T07:46:28.000Z,92.76
2023-01-03T07:47:28.000Z,92.61
2023-01-03T07:48:28.000Z,92.76
2023-01-03T07:49:28.000Z,92.76
2023-01-03T07:50:28.000Z,92.76
2023-01-03T07:51:28.000Z,92.55
2023-01-03T07:52:28.000Z,92.46
2023-01-03T07:53:28.000Z,92.46
2023-01-03T07:54:28.000Z,92.46
2023-01-03T07:55:28.000Z,92.66
2023-01-03T07:56:28.000Z,92.76
2023-01-03T07:57:28.000Z,92.86
2023-01-03T07:58:28.000Z,92.97
2023-01-03T07:59:28.000Z,93.07
2023-01-03T08:00:28.000Z,93.18
2023-01-03T08:01:28.000Z,93.18
2023-01-03T08:02:28.000Z,93.07
2023-01-03T08:03:28.000Z,93.07
2023-01-03T08:04:28.000Z,93.07
2023-01-03T08:05:28.000Z,93.18
2023-01-03T08:06:28.000Z,93.18
2023-01-03T08:07:27.000Z,93.18
2023-01-03T08:08:27.000Z,93.18
2023-01-03T08:09:27.000Z,93.18
2023-01-03T08:10:27.000Z,93.07
2023-01-03T08:11:27.000Z,93.18
2023-01-03T08:12:27.000Z,93.18
2023-01-03T08:13:27.000Z,92.97
2023-01-03T08:14:27.000Z,92.86
2023-01-03T08:15:27.000Z,92.86
2023-01-03T08:16:27.000Z,92.86
2023-01-03T08:17:27.000Z,92.86
2023-01-03T08:18:27.000Z,92.66
2023-01-03T08:19:27.000Z,92.66
2023-01-03T08:20:27.000Z,92.76
2023-01-03T08:21:27.000Z,92.66
2023-01-03T08:22:27.000Z,92.66
2023-01-03T08:23:27.000Z,92.55
2023-01-03T08:24:27.000Z,92.76
2023-01-03T08:25:27.000Z,92.76
2023-01-03T08:26:27.000Z,92.86
2023-01-03T08:27:27.000Z,92.86
2023-01-03T08:28:27.000Z,92.76
2023-01-03T08:29:27.000Z,92.76
2023-01-03T08:30:27.000Z,92.76
2023-01-03T08:31:27.000Z,92.76
2023-01-03T08:32:27.000Z,92.86
2023-01-03T08:33:27.000Z,92.76
2023-01-03T08:34:27.000Z,92.76
2023-01-03T08:35:27.000Z,92.55
2023-01-03T08:36:27.000Z,92.55
2023-01-03T08:37:27.000Z,92.66
2023-01-03T08:38:27.000Z,92.66
2023-01-03T08:39:27.000Z,92.66
2023-01-03T08:40:27.000Z,92.55
2023-01-03T08:41:27.000Z,92.66
2023-01-03T08:42:27.000Z,92.76
2023-01-03T08:43:27.000Z,92.76
2023-01-03T08:44:27.000Z,92.66
2023-01-03T08:45:27.000Z,92.86
2023-01-03T08:46:27.000Z,92.66
2023-01-03T08:47:27.000Z,92.76
2023-01-03T08:48:27.000Z,92.76
2023-01-03T08:49:27.000Z,92.66
2023-01-03T08:50:27.000Z,92.66
2023-01-03T08:51:27.000Z,92.55
2023-01-03T08:52:27.000Z,92.66
2023-01-03T08:53:27.000Z,92.66
2023-01-03T08:54:27.000Z,92.66
2023-01-03T08:55:27.000Z,92.55
2023-01-03T08:56:27.000Z,92.66
2023-01-03T08:57:27.000Z,92.76
2023-01-03T08:58:27.000Z,92.55
2023-01-03T08:59:27.000Z,92.55
2023-01-03T09:00:27.000Z,92.66
2023-01-03T09:01:27.000Z,92.66
2023-01-03T09:02:27.000Z,92.66
2023-01-03T09:03:27.000Z,92.51
2023-01-03T09:04:27.000Z,92.41
2023-01-03T09:05:27.000Z,92.51
2023-01-03T09:06:27.000Z,92.51
2023-01-03T09:07:27.000Z,92.31
2023-01-03T09:08:27.000Z,92.10
2023-01-03T09:09:27.000Z,92.00
2023-01-03T09:10:27.000Z,91.79
2023-01-03T09:11:27.000Z,91.69
2023-01-03T09:12:27.000Z,91.48
2023-01-03T09:13:27.000Z,91.48
2023-01-03T09:14:27.000Z,91.48
2023-01-03T09:15:27.000Z,91.28
2023-01-03T09:16:27.000Z,91.13
2023-01-03T09:17:27.000Z,90.97
2023-01-03T09:18:27.000Z,90.82
2023-01-03T09:19:27.000Z,90.72
2023-01-03T09:20:27.000Z,90.72
2023-01-03T09:21:27.000Z,90.61
2023-01-03T09:22:27.000Z,90.72
2023-01-03T09:23:27.000Z,90.82
2023-01-03T09:24:27.000Z,90.72
2023-01-03T09:25:27.000Z,90.82
2023-01-03T09:26:27.000Z,90.82
2023-01-03T09:27:27.000Z,90.82
2023-01-03T09:28:27.000Z,90.78
2023-01-03T09:29:27.000Z,90.88
2023-01-03T09:30:27.000Z,90.67
2023-01-03T09:31:27.000Z,90.67
2023-01-03T09:32:27.000Z,90.57
2023-01-03T09:33:27.000Z,90.37
2023-01-03T09:34:27.000Z,90.26
2023-01-03T09:35:27.000Z,90.06
2023-01-03T09:36:27.000Z,89.81
2023-01-03T09:37:27.000Z,89.54
2023-01-03T09:38:27.000Z,89.29
2023-01-03T09:39:27.000Z,88.89
2023-01-03T09:40:27.000Z,88.78
2023-01-03T09:41:27.000Z,88.78
2023-01-03T09:42:27.000Z,88.68
2023-01-03T09:43:27.000Z,88.78
2023-01-03T09:44:27.000Z,88.68
2023-01-03T09:45:27.000Z,88.33
2023-01-03T09:46:27.000Z,88.12
2023-01-03T09:47:27.000Z,87.92
2023-01-03T09:48:27.000Z,87.92
2023-01-03T09:49:27.000Z,87.81
2023-01-03T09:50:27.000Z,87.81
2023-01-03T09:51:27.000Z,87.71
2023-01-03T09:52:27.000Z,87.40
2023-01-03T09:53:26.000Z,87.36
2023-01-03T09:54:26.000Z,87.15
2023-01-03T09:55:26.000Z,86.95
2023-01-03T09:56:26.000Z,86.95
2023-01-03T09:57:26.000Z,87.05
2023-01-03T09:58:26.000Z,87.05
2023-01-03T09:59:26.000Z,87.05
2023-01-03T10:00:26.000Z,87.12
2023-01-03T10:01:26.000Z,87.01
2023-01-03T10:02:26.000Z,86.80
2023-01-03T10:03:26.000Z,86.91
2023-01-03T10:04:26.000Z,86.91
2023-01-03T10:05:26.000Z,86.80
2023-01-03T10:06:26.000Z,86.56
2023-01-03T10:07:26.000Z,86.35
2023-01-03T10:08:26.000Z,85.94
2023-01-03T10:09:26.000Z,85.53
2023-01-03T10:10:26.000Z,85.43
2023-01-03T10:11:26.000Z,85.33
2023-01-03T10:12:26.000Z,85.39
2023-01-03T10:13:26.000Z,85.18
2023-01-03T10:14:26.000Z,84.56
2023-01-03T10:15:26.000Z,84.36
2023-01-03T10:16:26.000Z,84.47
2023-01-03T10:17:26.000Z,84.56
2023-01-03T10:18:26.000Z,83.40
2023-01-03T10:19:26.000Z,83.40
2023-01-03T10:20:26.000Z,83.40
2023-01-03T10:21:26.000Z,83.40
2023-01-03T10:22:26.000Z,82.37
2023-01-03T10:23:26.000Z,82.17
2023-01-03T10:24:26.000Z,81.86
2023-01-03T10:25:26.000Z,81.86
2023-01-03T10:26:26.000Z,81.55
2023-01-03T10:27:26.000Z,81.51
2023-01-03T10:28:26.000Z,81.71
2023-01-03T10:29:26.000Z,81.82
2023-01-03T10:30:26.000Z,81.62
2023-01-03T10:31:26.000Z,81.10
2023-01-03T10:32:26.000Z,80.58
2023-01-03T10:33:26.000Z,80.58
2023-01-03T10:33:26.000Z,80.58
2023-01-03T10:34:26.000Z,80.24
2023-01-03T10:34:26.000Z,80.24
2023-01-03T10:35:26.000Z,80.24
2023-01-03T10:35:26.000Z,80.24
2023-01-03T10:36:26.000Z,80.14
2023-01-03T10:36:26.000Z,80.14
2023-01-03T10:37:26.000Z,80.24
2023-01-03T10:37:26.000Z,80.24
2023-01-03T10:38:26.000Z,80.14
2023-01-03T10:39:26.000Z,79.93
2023-01-03T10:40:26.000Z,79.90
2023-01-03T10:41:26.000Z,79.38
2023-01-03T10:42:26.000Z,79.18
2023-01-03T10:43:26.000Z,79.49
2023-01-03T10:43:26.000Z,79.49
2023-01-03T10:44:26.000Z,79.59
2023-01-03T10:44:26.000Z,79.59
2023-01-03T10:45:26.000Z,79.90
2023-01-03T10:45:26.000Z,79.90
2023-01-03T10:46:26.000Z,80.00
2023-01-03T10:46:26.000Z,80.00
2023-01-03T10:47:26.000Z,78.12
2023-01-03T10:47:26.000Z,78.12
2023-01-03T10:48:26.000Z,77.91
2023-01-03T10:49:26.000Z,77.50
2023-01-03T10:50:26.000Z,77.09
2023-01-03T10:51:26.000Z,76.68
2023-01-03T10:52:26.000Z,76.78
2023-01-03T10:53:26.000Z,76.99
2023-01-03T10:54:26.000Z,76.68
2023-01-03T10:55:26.000Z,76.65
2023-01-03T10:56:26.000Z,77.06
2023-01-03T10:57:26.000Z,77.16
2023-01-03T10:58:26.000Z,77.36
2023-01-03T10:59:26.000Z,77.06
2023-01-03T11:00:26.000Z,77.02
2023-01-03T11:01:26.000Z,77.12
2023-01-03T11:02:26.000Z,77.23
2023-01-03T11:03:26.000Z,76.10
2023-01-03T11:04:26.000Z,75.48
2023-01-03T11:05:26.000Z,73.74
2023-01-03T11:06:26.000Z,73.95
2023-01-03T11:07:26.000Z,73.81
2023-01-03T11:08:26.000Z,73.91
2023-01-03T11:09:26.000Z,73.71
2023-01-03T11:10:26.000Z,73.71
2023-01-03T11:11:26.000Z,73.40
2023-01-03T11:12:26.000Z,73.71
2023-01-03T11:13:26.000Z,73.40
2023-01-03T11:14:26.000Z,72.86
2023-01-03T11:15:26.000Z,72.45
2023-01-03T11:16:26.000Z,72.24
2023-01-03T11:17:26.000Z,72.55
2023-01-03T11:18:26.000Z,72.34
2023-01-03T11:19:26.000Z,72.55
2023-01-03T11:20:26.000Z,71.83
2023-01-03T11:21:26.000Z,72.34
2023-01-03T11:22:26.000Z,71.22
2023-01-03T11:23:26.000Z,71.73
2023-01-03T11:24:26.000Z,72.31
2023-01-03T11:25:26.000Z,72.41
2023-01-03T11:26:26.000Z,72.52
2023-01-03T11:27:26.000Z,71.80
2023-01-03T11:28:26.000Z,71.59
2023-01-03T11:29:26.000Z,71.29
2023-01-03T11:30:26.000Z,71.19
2023-01-03T11:31:26.000Z,71.19
2023-01-03T11:32:26.000Z,71.39
2023-01-03T11:33:26.000Z,69.85
2023-01-03T11:34:25.000Z,70.34
2023-01-03T11:35:25.000Z,70.64
2023-01-03T11:36:25.000Z,70.75
2023-01-03T11:37:25.000Z,70.54
2023-01-03T11:38:25.000Z,70.54
2023-01-03T11:39:25.000Z,70.84
2023-01-03T11:40:25.000Z,70.78
2023-01-03T11:41:25.000Z,70.47
2023-01-03T11:42:25.000Z,70.37
2023-01-03T11:43:25.000Z,71.29
2023-01-03T11:44:25.000Z,69.96
2023-01-03T11:45:25.000Z,70.57
2023-01-03T11:46:25.000Z,70.64
2023-01-03T11:47:25.000Z,70.20
2023-01-03T11:48:25.000Z,70.30
2023-01-03T11:49:25.000Z,70.17
2023-01-03T11:50:25.000Z,69.65
2023-01-03T11:51:25.000Z,69.96
2023-01-03T11:52:25.000Z,67.92
2023-01-03T11:53:25.000Z,68.63
2023-01-03T11:54:25.000Z,69.11
2023-01-03T11:55:25.000Z,68.60
2023-01-03T11:56:25.000Z,67.96
2023-01-03T11:57:25.000Z,68.47
2023-01-03T11:58:25.000Z,68.23
2023-01-03T11:59:25.000Z,67.11
2023-01-03T12:00:25.000Z,67.62
2023-01-03T12:01:25.000Z,67.79
2023-01-03T12:02:25.000Z,67.79
2023-01-03T12:03:25.000Z,67.59
2023-01-03T12:04:25.000Z,67.66
2023-01-03T12:05:25.000Z,67.25
2023-01-03T12:06:25.000Z,66.44
2023-01-03T12:07:25.000Z,65.69
2023-01-03T12:08:25.000Z,64.98
2023-01-03T12:09:25.000Z,65.59
2023-01-03T12:10:25.000Z,65.56
2023-01-03T12:11:25.000Z,65.05
2023-01-03T12:12:25.000Z,64.54
2023-01-03T12:13:25.000Z,64.14
2023-01-03T12:14:25.000Z,63.09
2023-01-03T12:15:25.000Z,63.39
2023-01-03T12:16:25.000Z,61.36
2023-01-03T12:17:25.000Z,60.75
2023-01-03T12:18:25.000Z,60.34
2023-01-03T12:19:25.000Z,59.93
2023-01-03T12:20:25.000Z,61.15
2023-01-03T12:21:25.000Z,61.15
2023-01-03T12:22:25.000Z,60.24
2023-01-03T12:23:25.000Z,59.63
2023-01-03T12:24:25.000Z,60.34
2023-01-03T12:25:25.000Z,61.15
2023-01-03T12:26:25.000Z,61.15
2023-01-03T12:27:25.000Z,61.87
2023-01-03T12:28:25.000Z,60.34
2023-01-03T12:29:25.000Z,60.47
2023-01-03T12:30:25.000Z,61.18
2023-01-03T12:31:25.000Z,60.57
2023-01-03T12:32:25.000Z,60.98
2023-01-03T12:33:25.000Z,60.57
2023-01-03T12:34:25.000Z,60.77
2023-01-03T12:35:25.000Z,61.11
2023-01-03T12:36:25.000Z,61.00
2023-01-03T12:37:25.000Z,61.31
2023-01-03T12:38:25.000Z,62.16
2023-01-03T12:39:25.000Z,61.44
2023-01-03T12:40:25.000Z,61.88
2023-01-03T12:41:25.000Z,62.70
2023-01-03T12:42:25.000Z,63.13